Time;durP1;ratioP1;P1;durP2;ratioP2;P2;SDS_P1;SDS_P2;PMS_P1;PMS_P2;Temp;Humidity;BMP_temperature;BMP_pressure;BME280_temperature;BME280_humidity;BME280_pressure;Samples;Min_cycle;Max_cycle;Signal;HPM_P1;HPM_P2
2022/01/09 00:01:04;;;;;;;0.10;0.10;;;5.30;99.90;;;;;;5023179;28;20049;-67
2022/01/09 00:03:30;;;;;;;0.08;0.08;;;5.30;99.90;;;;;;5022491;28;20064;-67
2022/01/09 00:05:55;;;;;;;0.10;0.10;;;5.30;99.90;;;;;;5020520;28;20057;-67
2022/01/09 00:08:21;;;;;;;0.10;0.10;;;5.30;99.90;;;;;;5022633;28;20569;-68
2022/01/09 00:10:47;;;;;;;0.10;0.10;;;5.30;99.90;;;;;;5021666;28;20092;-67
2022/01/09 00:13:14;;;;;;;0.10;0.10;;;5.30;99.90;;;;;;5021940;28;20033;-66
2022/01/09 00:15:40;;;;;;;0.10;0.10;;;5.30;99.90;;;;;;5025945;28;20026;-68
2022/01/09 00:18:05;;;;;;;0.10;0.10;;;5.30;99.90;;;;;;5021034;28;20033;-67
2022/01/09 00:20:31;;;;;;;0.10;0.10;;;5.20;99.90;;;;;;5021857;28;20443;-68
2022/01/09 00:22:58;;;;;;;0.10;0.10;;;5.20;99.90;;;;;;5023696;28;20030;-67
2022/01/09 00:25:24;;;;;;;0.10;0.10;;;5.30;99.90;;;;;;5023708;28;20344;-68
2022/01/09 00:27:51;;;;;;;0.10;0.10;;;5.20;99.90;;;;;;5021564;28;20025;-67
2022/01/09 00:30:20;;;;;;;0.10;0.10;;;5.20;99.90;;;;;;5022892;28;20375;-67
2022/01/09 00:32:46;;;;;;;0.10;0.10;;;5.20;99.90;;;;;;5021627;28;20104;-67
2022/01/09 00:35:13;;;;;;;0.10;0.10;;;5.20;99.90;;;;;;5024843;28;20136;-68
2022/01/09 00:37:39;;;;;;;0.00;0.00;;;5.20;99.90;;;;;;5022076;28;20033;-67
2022/01/09 00:40:07;;;;;;;0.10;0.10;;;5.10;99.90;;;;;;5021815;28;20030;-68
2022/01/09 00:42:32;;;;;;;0.05;0.05;;;5.10;99.90;;;;;;5024349;28;20116;-68
2022/01/09 00:44:58;;;;;;;0.10;0.10;;;5.20;99.90;;;;;;5020294;28;20672;-68
2022/01/09 00:47:24;;;;;;;0.10;0.10;;;5.10;99.90;;;;;;5020390;28;20032;-67
2022/01/09 00:49:50;;;;;;;0.10;0.10;;;5.10;99.90;;;;;;5021736;28;20355;-66
2022/01/09 00:52:16;;;;;;;0.10;0.10;;;5.10;99.90;;;;;;5025295;28;20107;-66
2022/01/09 00:54:41;;;;;;;0.13;0.13;;;5.10;99.90;;;;;;5021276;28;20033;-67
2022/01/09 00:57:07;;;;;;;0.10;0.10;;;5.20;99.90;;;;;;5021522;28;20117;-67
2022/01/09 00:59:33;;;;;;;0.05;0.05;;;5.10;99.90;;;;;;5025363;28;20642;-67
2022/01/09 01:01:59;;;;;;;0.10;0.10;;;5.20;99.90;;;;;;5038695;28;20039;-67
2022/01/09 01:04:24;;;;;;;0.10;0.10;;;5.10;99.90;;;;;;5023515;28;20068;-67
2022/01/09 01:06:51;;;;;;;0.10;0.10;;;5.20;99.90;;;;;;5022594;28;20118;-66
2022/01/09 01:09:17;;;;;;;0.10;0.10;;;5.20;99.90;;;;;;5024184;28;20063;-67
2022/01/09 01:11:43;;;;;;;0.10;0.10;;;5.20;99.90;;;;;;5024731;28;20049;-67
2022/01/09 01:14:09;;;;;;;0.10;0.10;;;5.20;99.90;;;;;;5022034;28;20471;-67
2022/01/09 01:16:35;;;;;;;0.10;0.10;;;5.20;99.90;;;;;;5024609;28;20068;-67
2022/01/09 01:19:02;;;;;;;0.10;0.10;;;5.20;99.90;;;;;;5025956;28;20033;-67
2022/01/09 01:21:27;;;;;;;0.00;0.00;;;5.20;99.90;;;;;;5026540;28;20033;-67
2022/01/09 01:23:53;;;;;;;0.10;0.10;;;5.20;99.90;;;;;;5023367;28;20468;-66
2022/01/09 01:26:19;;;;;;;0.10;0.10;;;5.20;99.90;;;;;;5026455;28;20076;-67
2022/01/09 01:28:44;;;;;;;0.10;0.10;;;5.20;99.90;;;;;;5023900;28;20557;-66
2022/01/09 01:31:11;;;;;;;0.10;0.10;;;5.30;99.90;;;;;;5026153;28;20119;-67
2022/01/09 01:33:37;;;;;;;0.10;0.10;;;5.20;99.90;;;;;;5027288;28;20033;-67
2022/01/09 01:36:03;;;;;;;0.10;0.10;;;5.30;99.90;;;;;;5024767;28;20033;-67
2022/01/09 01:38:29;;;;;;;0.10;0.10;;;5.30;99.90;;;;;;5026009;28;20100;-67
2022/01/09 01:40:54;;;;;;;0.10;0.10;;;5.30;99.90;;;;;;5025400;28;20049;-66
2022/01/09 01:43:20;;;;;;;0.10;0.10;;;5.40;99.90;;;;;;5028253;28;21437;-67
2022/01/09 01:45:46;;;;;;;0.10;0.10;;;5.30;99.90;;;;;;5059392;22;20097;-67
2022/01/09 01:48:11;;;;;;;0.10;0.10;;;5.30;99.90;;;;;;5057082;28;20093;-67
2022/01/09 01:50:38;;;;;;;0.10;0.10;;;5.30;99.90;;;;;;5058537;28;20545;-71
2022/01/09 01:53:07;;;;;;;0.05;0.05;;;5.30;99.90;;;;;;5056187;28;20071;-67
2022/01/09 01:55:37;;;;;;;0.00;0.00;;;5.40;99.90;;;;;;5054483;28;20112;-69
2022/01/09 01:58:05;;;;;;;0.10;0.10;;;5.40;99.90;;;;;;5049404;28;20112;-68
2022/01/09 02:00:31;;;;;;;0.10;0.10;;;5.40;99.90;;;;;;5060397;28;20036;-68
2022/01/09 02:02:57;;;;;;;0.10;0.10;;;5.40;99.90;;;;;;5051218;28;20390;-69
2022/01/09 02:05:22;;;;;;;0.10;0.10;;;5.40;99.90;;;;;;5048248;28;20032;-67
2022/01/09 02:07:50;;;;;;;0.10;0.10;;;5.40;99.90;;;;;;5051050;28;20033;-68
2022/01/09 02:10:16;;;;;;;0.10;0.10;;;5.40;99.90;;;;;;5050591;28;20162;-68
2022/01/09 02:12:42;;;;;;;0.10;0.10;;;5.40;99.90;;;;;;5048215;28;20311;-68
2022/01/09 02:15:32;;;;;;;0.10;0.10;;;5.40;99.90;;;;;;5040474;28;20467;-69
2022/01/09 02:17:58;;;;;;;0.10;0.10;;;5.40;99.90;;;;;;5047356;28;20025;-68
2022/01/09 02:20:24;;;;;;;0.10;0.10;;;5.50;99.90;;;;;;5051675;28;20095;-68
2022/01/09 02:22:49;;;;;;;0.10;0.10;;;5.40;99.90;;;;;;5045192;28;20104;-67
2022/01/09 02:25:15;;;;;;;0.10;0.10;;;5.40;99.90;;;;;;5051027;28;20086;-68
2022/01/09 02:27:41;;;;;;;0.10;0.10;;;5.40;99.90;;;;;;5050357;28;20052;-67
2022/01/09 02:30:08;;;;;;;0.10;0.10;;;5.40;99.90;;;;;;5049047;28;20491;-68
2022/01/09 02:32:33;;;;;;;0.10;0.10;;;5.40;99.90;;;;;;5051623;28;20026;-68
2022/01/09 02:34:59;;;;;;;0.10;0.10;;;5.40;99.90;;;;;;5049371;28;20021;-68
2022/01/09 02:37:25;;;;;;;0.10;0.10;;;5.40;99.90;;;;;;5050221;28;20376;-68
2022/01/09 02:39:50;;;;;;;0.05;0.05;;;5.40;99.90;;;;;;5047314;28;20079;-68
2022/01/09 02:42:26;;;;;;;0.10;0.10;;;5.40;99.90;;;;;;5051595;28;20512;-68
2022/01/09 02:44:54;;;;;;;0.10;0.10;;;5.30;99.90;;;;;;5050146;28;20028;-68
2022/01/09 02:47:21;;;;;;;0.10;0.10;;;5.30;99.90;;;;;;5050285;28;20045;-67
2022/01/09 02:49:50;;;;;;;0.10;0.10;;;5.20;99.90;;;;;;5050599;28;20021;-68
2022/01/09 02:52:47;;;;;;;0.10;0.10;;;5.20;99.90;;;;;;5051171;28;20521;-67
2022/01/09 02:55:14;;;;;;;0.10;0.10;;;5.20;99.90;;;;;;5050013;28;20036;-66
2022/01/09 02:57:41;;;;;;;0.10;0.10;;;5.20;99.90;;;;;;5042904;28;20120;-67
2022/01/09 03:00:10;;;;;;;0.10;0.10;;;5.20;99.90;;;;;;5052942;28;20032;-68
2022/01/09 03:02:36;;;;;;;0.10;0.10;;;5.10;99.90;;;;;;5050697;28;20055;-68
2022/01/09 03:05:02;;;;;;;0.10;0.10;;;5.10;99.90;;;;;;5048967;28;20483;-68
2022/01/09 03:07:27;;;;;;;0.10;0.10;;;5.10;99.90;;;;;;5050114;28;20067;-66
2022/01/09 03:09:53;;;;;;;0.10;0.10;;;5.20;99.90;;;;;;5049648;28;20017;-68
2022/01/09 03:12:19;;;;;;;0.10;0.10;;;5.30;99.90;;;;;;5049407;28;20439;-68
2022/01/09 03:14:46;;;;;;;0.10;0.10;;;5.20;99.90;;;;;;5049832;28;20483;-67
2022/01/09 03:17:12;;;;;;;0.10;0.10;;;5.20;99.90;;;;;;5050260;28;20107;-67
2022/01/09 03:19:38;;;;;;;0.10;0.10;;;5.20;99.90;;;;;;5050158;28;20116;-67
2022/01/09 03:22:04;;;;;;;0.10;0.10;;;5.20;99.90;;;;;;5046010;28;20149;-67
2022/01/09 03:24:29;;;;;;;0.10;0.10;;;5.20;99.90;;;;;;5049062;28;20025;-68
2022/01/09 03:26:55;;;;;;;0.10;0.10;;;5.30;99.90;;;;;;5050414;28;20094;-67
2022/01/09 03:29:20;;;;;;;0.10;0.10;;;5.30;99.90;;;;;;5048429;28;20116;-68
2022/01/09 03:31:46;;;;;;;0.10;0.10;;;5.30;99.90;;;;;;5045330;28;20071;-68
2022/01/09 03:34:12;;;;;;;0.10;0.10;;;5.30;99.90;;;;;;5049708;28;20021;-68
2022/01/09 03:36:37;;;;;;;0.10;0.10;;;5.30;99.90;;;;;;5050491;28;20467;-68
2022/01/09 03:39:03;;;;;;;0.10;0.10;;;5.30;99.90;;;;;;5042357;28;20060;-68
2022/01/09 03:41:29;;;;;;;0.10;0.10;;;5.30;99.90;;;;;;5050451;28;20108;-67
2022/01/09 03:43:54;;;;;;;0.10;0.10;;;5.30;99.90;;;;;;5048590;28;20100;-68
2022/01/09 03:46:20;;;;;;;0.10;0.10;;;5.30;99.90;;;;;;5049932;28;20552;-68
2022/01/09 03:48:46;;;;;;;0.10;0.10;;;5.30;99.90;;;;;;5046223;28;20033;-69
2022/01/09 03:51:11;;;;;;;0.10;0.10;;;5.30;99.90;;;;;;5049066;28;20029;-68
2022/01/09 03:53:39;;;;;;;0.10;0.10;;;5.30;99.90;;;;;;5047696;28;20017;-68
2022/01/09 03:56:05;;;;;;;0.10;0.10;;;5.40;99.90;;;;;;5043554;28;20525;-68
2022/01/09 03:58:30;;;;;;;0.10;0.10;;;5.30;99.90;;;;;;5050407;28;20033;-68
2022/01/09 04:00:56;;;;;;;0.10;0.10;;;5.20;99.90;;;;;;5054119;28;20025;-68
2022/01/09 04:03:22;;;;;;;0.10;0.10;;;5.20;99.90;;;;;;5048399;28;20374;-67
2022/01/09 04:05:47;;;;;;;0.10;0.10;;;5.30;99.90;;;;;;5047659;28;20029;-69
2022/01/09 04:08:13;;;;;;;0.10;0.10;;;5.30;99.90;;;;;;5047385;28;20364;-68
2022/01/09 04:10:41;;;;;;;0.10;0.10;;;5.30;99.90;;;;;;5050458;28;20029;-68
2022/01/09 04:13:10;;;;;;;0.00;0.00;;;5.20;99.90;;;;;;5048601;28;20451;-68
2022/01/09 04:15:38;;;;;;;0.10;0.10;;;5.20;99.90;;;;;;5048931;28;20108;-68
2022/01/09 04:18:04;;;;;;;0.10;0.10;;;5.30;99.90;;;;;;5048661;28;20115;-68
2022/01/09 04:20:31;;;;;;;0.10;0.10;;;5.20;99.90;;;;;;5047850;28;20483;-67
2022/01/09 04:22:58;;;;;;;0.10;0.10;;;5.20;99.90;;;;;;5040795;28;20059;-68
2022/01/09 04:25:25;;;;;;;0.10;0.10;;;5.20;99.90;;;;;;5048723;28;20032;-69
2022/01/09 04:27:51;;;;;;;0.10;0.10;;;5.20;99.90;;;;;;5047663;28;20037;-69
2022/01/09 04:30:17;;;;;;;0.00;0.00;;;5.20;99.90;;;;;;5049179;28;20029;-68
2022/01/09 04:32:43;;;;;;;0.10;0.10;;;5.20;99.90;;;;;;5040503;28;20122;-68
2022/01/09 04:35:10;;;;;;;0.10;0.10;;;5.20;99.90;;;;;;5047680;28;20025;-68
2022/01/09 04:37:37;;;;;;;0.10;0.10;;;5.20;99.90;;;;;;5048564;28;20025;-69
2022/01/09 04:40:06;;;;;;;0.10;0.10;;;5.30;99.90;;;;;;5041456;28;20108;-68
2022/01/09 04:42:40;;;;;;;0.10;0.10;;;5.20;99.90;;;;;;5038005;28;20049;-67
2022/01/09 04:45:07;;;;;;;0.10;0.10;;;5.20;99.90;;;;;;5046277;28;20110;-68
2022/01/09 04:47:33;;;;;;;0.10;0.10;;;5.20;99.90;;;;;;5048736;28;20017;-67
2022/01/09 04:49:59;;;;;;;0.10;0.10;;;5.10;99.90;;;;;;5039733;28;20032;-68
2022/01/09 04:52:31;;;;;;;0.10;0.10;;;5.10;99.90;;;;;;5048381;28;20033;-67
2022/01/09 04:54:57;;;;;;;0.10;0.10;;;5.10;99.90;;;;;;5047827;28;20147;-68
2022/01/09 04:57:22;;;;;;;0.10;0.10;;;5.00;99.90;;;;;;5047626;28;20096;-67
2022/01/09 04:59:48;;;;;;;0.10;0.10;;;5.00;99.90;;;;;;5043912;28;20044;-69
2022/01/09 05:02:13;;;;;;;0.10;0.10;;;4.90;99.90;;;;;;5047047;28;20032;-68
2022/01/09 05:04:39;;;;;;;0.10;0.10;;;4.80;99.90;;;;;;5047902;28;20502;-67
2022/01/09 05:07:05;;;;;;;0.10;0.10;;;4.70;99.90;;;;;;5043149;28;20321;-68
2022/01/09 05:09:30;;;;;;;0.10;0.10;;;4.60;99.90;;;;;;5048014;28;20104;-68
2022/01/09 05:11:57;;;;;;;0.10;0.10;;;4.60;99.90;;;;;;5048202;28;20100;-67
2022/01/09 05:14:22;;;;;;;0.10;0.10;;;4.50;99.90;;;;;;5047229;28;20075;-67
2022/01/09 05:16:49;;;;;;;0.10;0.10;;;5.00;99.90;;;;;;5034304;28;20070;-68
2022/01/09 05:19:20;;;;;;;0.00;0.00;;;4.40;99.90;;;;;;5047058;28;20075;-68
2022/01/09 05:21:48;;;;;;;0.10;0.10;;;4.40;99.90;;;;;;5048248;28;20036;-68
2022/01/09 05:24:15;;;;;;;0.10;0.10;;;4.40;99.90;;;;;;5046501;28;20029;-68
2022/01/09 05:26:40;;;;;;;0.10;0.10;;;4.40;99.90;;;;;;5046445;28;20044;-68
2022/01/09 05:29:06;;;;;;;0.10;0.10;;;4.30;99.90;;;;;;5047388;28;20040;-67
2022/01/09 05:31:31;;;;;;;0.10;0.10;;;4.30;99.90;;;;;;5044444;28;20033;-68
2022/01/09 05:33:57;;;;;;;0.10;0.10;;;4.30;99.90;;;;;;5048038;28;20387;-68
2022/01/09 05:36:23;;;;;;;0.00;0.00;;;4.20;99.90;;;;;;5047665;28;20104;-67
2022/01/09 05:38:48;;;;;;;0.10;0.10;;;4.20;99.90;;;;;;5047762;28;20044;-68
2022/01/09 05:41:14;;;;;;;0.10;0.10;;;4.10;99.90;;;;;;5047518;28;20029;-67
2022/01/09 05:43:40;;;;;;;0.10;0.10;;;4.10;99.90;;;;;;5047931;28;20097;-67
2022/01/09 05:46:06;;;;;;;0.10;0.10;;;4.00;99.90;;;;;;5045293;28;20037;-67
2022/01/09 05:48:32;;;;;;;0.10;0.10;;;4.00;99.90;;;;;;5048559;28;20067;-67
2022/01/09 05:50:58;;;;;;;0.10;0.10;;;4.00;99.90;;;;;;5047335;28;20057;-68
2022/01/09 05:53:23;;;;;;;0.10;0.10;;;4.00;99.90;;;;;;5047438;28;20017;-68
2022/01/09 05:55:50;;;;;;;0.10;0.10;;;3.90;99.90;;;;;;5043905;28;20449;-68
2022/01/09 05:58:16;;;;;;;0.03;0.03;;;3.90;99.90;;;;;;5045716;28;20029;-68
2022/01/09 06:00:41;;;;;;;0.10;0.10;;;3.90;99.90;;;;;;5047485;28;20059;-67
2022/01/09 06:03:07;;;;;;;0.10;0.10;;;3.90;99.90;;;;;;5051595;28;20057;-69
2022/01/09 06:05:33;;;;;;;0.10;0.10;;;3.90;99.90;;;;;;5050169;28;20029;-67
2022/01/09 06:07:58;;;;;;;0.10;0.10;;;3.80;99.90;;;;;;5051735;28;20546;-67
2022/01/09 06:10:24;;;;;;;0.10;0.10;;;3.80;99.90;;;;;;5050681;28;20538;-67
2022/01/09 06:12:49;;;;;;;0.10;0.10;;;3.80;99.90;;;;;;5046452;28;20438;-68
2022/01/09 06:15:15;;;;;;;0.10;0.10;;;3.80;99.90;;;;;;5048329;28;20063;-67
2022/01/09 06:17:43;;;;;;;0.10;0.10;;;3.40;99.90;;;;;;5051174;28;20112;-67
2022/01/09 06:20:11;;;;;;;0.10;0.10;;;3.80;99.90;;;;;;5050912;28;20040;-68
2022/01/09 06:22:37;;;;;;;0.10;0.10;;;3.80;99.90;;;;;;5049964;28;20040;-67
2022/01/09 06:25:03;;;;;;;0.10;0.10;;;3.80;99.90;;;;;;5048449;28;20025;-68
2022/01/09 06:27:29;;;;;;;0.10;0.10;;;3.80;99.90;;;;;;5051564;28;20021;-68
2022/01/09 06:29:55;;;;;;;0.10;0.10;;;3.90;99.90;;;;;;5051132;28;20051;-68
2022/01/09 06:32:21;;;;;;;0.10;0.10;;;3.90;99.90;;;;;;5048152;28;20025;-68
2022/01/09 06:34:46;;;;;;;0.00;0.00;;;3.90;99.90;;;;;;5043853;28;20029;-67
2022/01/09 06:37:12;;;;;;;0.10;0.10;;;3.90;99.90;;;;;;5050832;28;20056;-67
2022/01/09 06:39:39;;;;;;;0.10;0.10;;;3.90;99.90;;;;;;5051192;28;20347;-66
2022/01/09 06:42:04;;;;;;;0.10;0.10;;;3.90;99.90;;;;;;5045548;28;20041;-67
2022/01/09 06:44:30;;;;;;;0.10;0.10;;;3.90;99.90;;;;;;5049873;28;20025;-66
2022/01/09 06:46:56;;;;;;;0.10;0.10;;;3.90;99.90;;;;;;5051987;28;20040;-68
2022/01/09 06:49:21;;;;;;;0.10;0.10;;;3.90;99.90;;;;;;5059849;28;20122;-68
2022/01/09 06:51:47;;;;;;;0.10;0.10;;;3.90;99.90;;;;;;5049919;28;20380;-69
2022/01/09 06:54:13;;;;;;;0.10;0.10;;;3.90;99.90;;;;;;5050120;28;20100;-68
2022/01/09 06:56:39;;;;;;;0.10;0.10;;;3.90;99.90;;;;;;5050950;28;20021;-67
2022/01/09 06:59:05;;;;;;;0.10;0.10;;;3.90;99.90;;;;;;5049992;28;20567;-68
2022/01/09 07:01:31;;;;;;;0.10;0.10;;;3.80;99.90;;;;;;5048998;28;20041;-68
2022/01/09 07:03:56;;;;;;;0.10;0.10;;;3.80;99.90;;;;;;5050692;28;20113;-68
2022/01/09 07:06:22;;;;;;;0.10;0.10;;;3.80;99.90;;;;;;5050910;28;20079;-67
2022/01/09 07:08:48;;;;;;;0.00;0.00;;;3.80;99.90;;;;;;5036328;28;20447;-68
2022/01/09 07:11:13;;;;;;;0.10;0.10;;;3.70;99.90;;;;;;5032998;28;20105;-67
2022/01/09 07:13:39;;;;;;;0.10;0.10;;;3.70;99.90;;;;;;5049775;28;20052;-67
2022/01/09 07:16:05;;;;;;;0.10;0.10;;;3.70;99.90;;;;;;5045511;28;20459;-67
2022/01/09 07:18:30;;;;;;;0.10;0.10;;;3.70;99.90;;;;;;5049221;28;20090;-68
2022/01/09 07:20:56;;;;;;;0.10;0.10;;;3.70;99.90;;;;;;5050218;28;20462;-67
2022/01/09 07:23:21;;;;;;;0.10;0.10;;;3.70;99.90;;;;;;5049967;28;20229;-68
2022/01/09 07:25:47;;;;;;;0.10;0.10;;;3.70;99.90;;;;;;5043977;28;20343;-67
2022/01/09 07:28:13;;;;;;;0.00;0.00;;;3.70;99.90;;;;;;5049841;28;20092;-67
2022/01/09 07:30:39;;;;;;;0.10;0.10;;;3.70;99.90;;;;;;5049628;28;20017;-67
2022/01/09 07:33:05;;;;;;;0.10;0.10;;;3.80;99.90;;;;;;5050499;28;20422;-67
2022/01/09 07:35:31;;;;;;;0.10;0.10;;;3.80;99.90;;;;;;5047207;28;20027;-68
2022/01/09 07:37:57;;;;;;;0.10;0.10;;;3.80;99.90;;;;;;5048905;28;20022;-67
2022/01/09 07:40:23;;;;;;;0.10;0.10;;;3.80;99.90;;;;;;5048988;28;20152;-67
2022/01/09 07:42:50;;;;;;;0.10;0.10;;;3.80;99.90;;;;;;5049918;28;20053;-68
2022/01/09 07:45:22;;;;;;;0.10;0.10;;;3.80;99.90;;;;;;5067605;22;20037;-67
2022/01/09 07:47:48;;;;;;;0.10;0.10;;;3.90;99.90;;;;;;5068871;28;20025;-67
2022/01/09 07:50:14;;;;;;;0.10;0.10;;;3.90;99.90;;;;;;5068838;28;20036;-67
2022/01/09 07:52:41;;;;;;;0.10;0.10;;;3.90;99.90;;;;;;5065462;28;20100;-67
2022/01/09 07:55:08;;;;;;;0.08;0.08;;;4.00;99.90;;;;;;5050487;28;20105;-67
2022/01/09 07:57:35;;;;;;;0.10;0.10;;;4.10;99.90;;;;;;5065119;28;20031;-67
2022/01/09 08:00:04;;;;;;;0.08;0.08;;;4.10;99.90;;;;;;5080005;28;20031;-66
2022/01/09 08:02:30;;;;;;;0.05;0.05;;;4.10;99.90;;;;;;5057359;28;20311;-66
2022/01/09 08:04:55;;;;;;;0.10;0.10;;;4.10;99.90;;;;;;5070305;28;20481;-67
2022/01/09 08:07:21;;;;;;;0.00;0.00;;;4.20;99.90;;;;;;5070234;28;20031;-66
2022/01/09 08:09:47;;;;;;;0.10;0.10;;;4.20;99.90;;;;;;5058631;28;20051;-66
2022/01/09 08:12:14;;;;;;;0.10;0.10;;;4.20;99.90;;;;;;5064775;28;20055;-67
2022/01/09 08:14:44;;;;;;;0.47;0.47;;;4.30;99.90;;;;;;5073227;28;20061;-67
2022/01/09 08:17:11;;;;;;;0.00;0.00;;;4.30;99.90;;;;;;5059636;28;20625;-67
2022/01/09 08:19:36;;;;;;;0.10;0.10;;;4.30;99.90;;;;;;5074403;28;20032;-67
2022/01/09 08:22:03;;;;;;;0.38;0.38;;;4.30;99.90;;;;;;5075165;28;20024;-67
2022/01/09 08:24:29;;;;;;;0.10;0.10;;;4.30;99.90;;;;;;5063104;28;20029;-68
2022/01/09 08:26:55;;;;;;;0.10;0.10;;;4.30;99.90;;;;;;5052703;28;20099;-68
2022/01/09 08:29:21;;;;;;;0.17;0.17;;;4.30;99.90;;;;;;5069621;28;20078;-68
2022/01/09 08:31:47;;;;;;;0.10;0.10;;;4.30;99.90;;;;;;5073488;28;20021;-68
2022/01/09 08:34:12;;;;;;;0.10;0.10;;;4.30;99.90;;;;;;5056331;28;20025;-68
2022/01/09 08:36:38;;;;;;;0.10;0.10;;;4.40;99.90;;;;;;5049409;28;20087;-68
2022/01/09 08:39:05;;;;;;;0.10;0.10;;;4.40;99.90;;;;;;5065999;28;20470;-67
2022/01/09 08:41:34;;;;;;;0.10;0.10;;;4.50;99.90;;;;;;5063504;28;20071;-67
2022/01/09 08:44:01;;;;;;;0.10;0.10;;;4.40;99.90;;;;;;5069557;28;20097;-66
2022/01/09 08:46:28;;;;;;;0.10;0.10;;;4.50;99.90;;;;;;5069238;28;20267;-67
2022/01/09 08:48:53;;;;;;;0.10;0.10;;;4.50;99.90;;;;;;5052382;28;20032;-67
2022/01/09 08:51:19;;;;;;;0.10;0.10;;;4.50;99.90;;;;;;5049463;28;20271;-68
2022/01/09 08:53:50;;;;;;;0.00;0.00;;;4.50;99.90;;;;;;5059348;28;20024;-67
2022/01/09 08:56:20;;;;;;;0.10;0.10;;;4.50;99.90;;;;;;5065902;28;20115;-67
2022/01/09 08:58:46;;;;;;;0.10;0.10;;;4.60;99.90;;;;;;5068359;28;20067;-68
2022/01/09 09:01:12;;;;;;;0.10;0.10;;;4.60;99.90;;;;;;5061720;28;20580;-68
2022/01/09 09:03:41;;;;;;;0.10;0.10;;;4.60;99.90;;;;;;5064191;28;20029;-68
2022/01/09 09:06:13;;;;;;;0.10;0.10;;;4.70;99.90;;;;;;5067418;28;20074;-67
2022/01/09 09:08:39;;;;;;;0.00;0.00;;;4.70;99.90;;;;;;5068632;28;20036;-68
2022/01/09 09:11:06;;;;;;;0.10;0.10;;;4.80;99.90;;;;;;5066044;28;20021;-68
2022/01/09 09:13:32;;;;;;;0.10;0.10;;;4.80;99.90;;;;;;5067726;28;20047;-67
2022/01/09 09:15:58;;;;;;;0.10;0.10;;;4.80;99.90;;;;;;5067263;28;20403;-68
2022/01/09 09:18:24;;;;;;;0.10;0.10;;;4.80;99.90;;;;;;5068063;28;20024;-68
2022/01/09 09:20:50;;;;;;;0.10;0.10;;;4.90;99.90;;;;;;5065420;28;20465;-68
2022/01/09 09:23:16;;;;;;;0.10;0.10;;;4.70;99.90;;;;;;5067146;28;20044;-68
2022/01/09 09:25:41;;;;;;;0.10;0.10;;;4.60;99.90;;;;;;5066087;28;20074;-67
2022/01/09 09:28:07;;;;;;;0.10;0.10;;;4.60;99.90;;;;;;5062999;28;20386;-67
2022/01/09 09:30:32;;;;;;;0.10;0.10;;;4.70;99.90;;;;;;5065950;28;20254;-67
2022/01/09 09:32:58;;;;;;;0.10;0.10;;;4.70;99.90;;;;;;5064589;28;20048;-68
2022/01/09 09:35:24;;;;;;;0.10;0.10;;;4.80;99.90;;;;;;5068043;28;20029;-68
2022/01/09 09:37:50;;;;;;;0.10;0.10;;;4.80;99.90;;;;;;5071593;28;20475;-67
2022/01/09 09:40:16;;;;;;;0.10;0.10;;;4.80;99.90;;;;;;5069075;28;20056;-69
2022/01/09 09:42:42;;;;;;;0.10;0.10;;;4.70;99.90;;;;;;5070926;28;20024;-68
2022/01/09 09:45:09;;;;;;;0.10;0.10;;;4.70;99.90;;;;;;5070458;28;20117;-68
2022/01/09 09:47:36;;;;;;;0.10;0.10;;;4.70;99.90;;;;;;5067976;28;20104;-68
2022/01/09 09:50:05;;;;;;;0.10;0.10;;;4.60;99.90;;;;;;5068085;28;20040;-67
2022/01/09 09:52:31;;;;;;;0.10;0.10;;;4.40;99.90;;;;;;5067567;28;20021;-68
2022/01/09 09:54:57;;;;;;;0.00;0.00;;;4.30;99.90;;;;;;5066607;28;20437;-68
2022/01/09 09:57:23;;;;;;;0.10;0.10;;;4.30;99.90;;;;;;5070869;28;20112;-68
2022/01/09 09:59:49;;;;;;;0.00;0.00;;;4.20;99.90;;;;;;5072628;28;20127;-68
2022/01/09 10:02:17;;;;;;;0.10;0.10;;;4.40;99.90;;;;;;5070866;28;20476;-71
2022/01/09 10:04:56;;;;;;;0.00;0.00;;;4.50;99.90;;;;;;5069049;28;20025;-71
2022/01/09 10:07:23;;;;;;;0.10;0.10;;;4.70;99.90;;;;;;5071426;28;20040;-71
2022/01/09 10:09:57;;;;;;;0.10;0.10;;;4.80;99.90;;;;;;5071246;28;20020;-71
2022/01/09 10:12:24;;;;;;;0.10;0.10;;;4.90;99.90;;;;;;5067882;28;20056;-70
2022/01/09 10:14:54;;;;;;;0.10;0.10;;;5.00;99.90;;;;;;5067411;28;20028;-70
2022/01/09 10:17:20;;;;;;;0.10;0.10;;;5.10;99.90;;;;;;5069407;28;20142;-66
2022/01/09 10:19:47;;;;;;;0.10;0.10;;;5.10;99.90;;;;;;5069447;28;20017;-66
2022/01/09 10:22:23;;;;;;;0.10;0.10;;;5.10;99.90;;;;;;5066609;28;20029;-66
2022/01/09 10:24:49;;;;;;;0.10;0.10;;;5.10;99.90;;;;;;5068476;28;20070;-67
2022/01/09 10:27:48;;;;;;;0.10;0.10;;;5.00;99.90;;;;;;5068933;28;20028;-69
2022/01/09 10:30:14;;;;;;;0.10;0.10;;;4.90;99.90;;;;;;5067093;28;20119;-68
2022/01/09 10:32:40;;;;;;;0.10;0.10;;;5.00;99.90;;;;;;5069923;28;20111;-68
2022/01/09 10:35:08;;;;;;;0.10;0.10;;;5.10;99.90;;;;;;5065158;28;20029;-69
2022/01/09 10:37:35;;;;;;;0.10;0.10;;;5.20;99.90;;;;;;5068134;28;20029;-68
2022/01/09 10:40:03;;;;;;;0.00;0.00;;;5.30;99.90;;;;;;5063568;28;20021;-68
2022/01/09 10:42:29;;;;;;;0.10;0.10;;;5.40;99.90;;;;;;5068754;28;20028;-67
2022/01/09 10:44:55;;;;;;;0.10;0.10;;;5.40;99.90;;;;;;5069926;28;20568;-68
2022/01/09 10:47:20;;;;;;;0.10;0.10;;;5.30;99.90;;;;;;5070609;28;20043;-68
2022/01/09 10:49:49;;;;;;;0.10;0.10;;;5.10;99.90;;;;;;5064358;28;20447;-68
2022/01/09 10:52:27;;;;;;;0.10;0.10;;;5.00;99.90;;;;;;5064163;28;20104;-68
2022/01/09 10:55:05;;;;;;;0.10;0.10;;;5.50;99.90;;;;;;5068188;28;20029;-68
2022/01/09 10:57:33;;;;;;;0.10;0.10;;;5.00;99.90;;;;;;5068962;28;20074;-68
2022/01/09 11:00:14;;;;;;;0.10;0.10;;;4.80;99.90;;;;;;5071021;28;20078;-68
2022/01/09 11:02:40;;;;;;;0.10;0.10;;;4.60;99.90;;;;;;5067811;28;20032;-68
2022/01/09 11:05:06;;;;;;;0.10;0.10;;;4.50;99.90;;;;;;5068934;28;20375;-68
2022/01/09 11:07:33;;;;;;;0.10;0.10;;;4.50;99.90;;;;;;5066988;28;20103;-67
2022/01/09 11:10:00;;;;;;;0.10;0.10;;;4.70;99.90;;;;;;5069396;28;20036;-67
2022/01/09 11:12:33;;;;;;;0.10;0.10;;;4.90;99.90;;;;;;5067930;28;20028;-67
2022/01/09 11:15:01;;;;;;;0.10;0.10;;;5.10;99.90;;;;;;5069172;28;20025;-68
2022/01/09 11:17:28;;;;;;;0.10;0.10;;;5.20;99.90;;;;;;5067266;28;20020;-67
2022/01/09 11:19:53;;;;;;;0.10;0.10;;;5.50;99.90;;;;;;5069404;28;20440;-68
2022/01/09 11:22:20;;;;;;;0.10;0.10;;;5.50;99.90;;;;;;5068975;28;20107;-67
2022/01/09 11:24:58;;;;;;;0.35;0.35;;;5.50;99.90;;;;;;5066676;28;20020;-67
2022/01/09 11:27:24;;;;;;;0.10;0.10;;;5.50;99.90;;;;;;5068355;28;20541;-67
2022/01/09 11:30:21;;;;;;;0.10;0.10;;;5.60;99.90;;;;;;5065082;28;20029;-67
2022/01/09 11:33:20;;;;;;;0.10;0.10;;;5.60;99.90;;;;;;5066394;28;20496;-68
2022/01/09 11:36:23;;;;;;;0.10;0.10;;;5.60;99.90;;;;;;5065998;28;20029;-68
2022/01/09 11:38:58;;;;;;;0.00;0.00;;;5.60;99.90;;;;;;5068691;28;20032;-67
2022/01/09 11:41:26;;;;;;;0.10;0.10;;;5.60;99.90;;;;;;5066111;28;20389;-68
2022/01/09 11:44:03;;;;;;;0.10;0.10;;;5.70;99.90;;;;;;5067887;28;20033;-67
2022/01/09 11:46:32;;;;;;;0.10;0.10;;;5.90;99.90;;;;;;5065636;28;20059;-68
2022/01/09 11:49:06;;;;;;;0.10;0.10;;;6.20;99.90;;;;;;5069287;28;20016;-68
2022/01/09 11:51:34;;;;;;;0.10;0.10;;;6.50;99.90;;;;;;5061635;28;20509;-68
2022/01/09 11:54:05;;;;;;;0.10;0.10;;;6.50;99.90;;;;;;5067436;28;20028;-68
2022/01/09 11:57:06;;;;;;;0.10;0.10;;;6.40;99.90;;;;;;5065218;28;20059;-70
2022/01/09 11:59:37;;;;;;;0.10;0.10;;;6.40;99.90;;;;;;5068667;28;20060;-70
2022/01/09 12:02:04;;;;;;;0.10;0.10;;;6.40;99.90;;;;;;5066941;28;20024;-70
2022/01/09 12:04:33;;;;;;;0.10;0.10;;;6.40;99.90;;;;;;5067720;28;20024;-69
2022/01/09 12:07:01;;;;;;;0.10;0.10;;;6.40;99.90;;;;;;5068192;28;20108;-69
2022/01/09 12:09:35;;;;;;;0.00;0.00;;;6.30;99.90;;;;;;5065597;28;20058;-68
2022/01/09 12:12:05;;;;;;;0.10;0.10;;;6.10;99.90;;;;;;5068076;28;20037;-72
2022/01/09 12:15:04;;;;;;;0.10;0.10;;;6.10;99.90;;;;;;5068499;28;20137;-73
2022/01/09 12:17:33;;;;;;;0.10;0.10;;;6.20;99.90;;;;;;5104352;28;20024;-69
2022/01/09 12:20:14;;;;;;;0.10;0.10;;;6.20;99.90;;;;;;5108881;27;20034;-69
2022/01/09 12:22:43;;;;;;;0.10;0.10;;;6.30;99.90;;;;;;5107355;27;20034;-69
2022/01/09 12:25:09;;;;;;;0.10;0.10;;;6.30;99.90;;;;;;5110575;27;20135;-69
2022/01/09 12:27:35;;;;;;;0.10;0.10;;;6.40;99.90;;;;;;5090027;28;20494;-69
2022/01/09 12:30:01;;;;;;;0.10;0.10;;;6.50;99.90;;;;;;5106685;28;20053;-69
2022/01/09 12:32:38;;;;;;;0.10;0.10;;;6.60;99.90;;;;;;5108024;28;20024;-69
2022/01/09 12:35:22;;;;;;;0.10;0.10;;;6.60;99.90;;;;;;5103252;28;20095;-69
2022/01/09 12:37:53;;;;;;;0.10;0.10;;;6.50;99.90;;;;;;5108993;28;20027;-71
2022/01/09 12:40:24;;;;;;;0.10;0.10;;;6.30;99.90;;;;;;5106757;28;20114;-68
2022/01/09 12:42:52;;;;;;;0.10;0.10;;;6.30;99.90;;;;;;5104523;28;20046;-68
2022/01/09 12:45:29;;;;;;;0.10;0.10;;;6.30;99.90;;;;;;5107006;28;20550;-68
2022/01/09 12:47:56;;;;;;;0.10;0.10;;;6.20;99.90;;;;;;5106701;28;20040;-69
2022/01/09 12:50:35;;;;;;;0.10;0.10;;;6.20;99.90;;;;;;5107677;28;20022;-67
2022/01/09 12:53:21;;;;;;;0.10;0.10;;;6.30;99.90;;;;;;5104219;28;20081;-68
2022/01/09 12:55:59;;;;;;;0.10;0.10;;;6.30;99.90;;;;;;5103463;28;20020;-69
2022/01/09 12:58:33;;;;;;;0.10;0.10;;;6.30;99.90;;;;;;5106214;28;20034;-68
2022/01/09 13:01:01;;;;;;;0.10;0.10;;;6.30;99.90;;;;;;5100709;28;20015;-71